Time;durP1;ratioP1;P1;durP2;ratioP2;P2;SDS_P1;SDS_P2;PMS_P1;PMS_P2;Temp;Humidity;BMP_temperature;BMP_pressure;BME280_temperature;BME280_humidity;BME280_pressure;Samples;Min_cycle;Max_cycle;Signal;HPM_P1;HPM_P2
2022/01/17 00:01:25;;;;;;;12.15;5.55;;;4.20;86.30;;;;;;2918925;23;10001901;-71
2022/01/17 00:03:52;;;;;;;8.15;4.38;;;4.20;86.20;;;;;;6053357;23;20019;-71
2022/01/17 00:06:18;;;;;;;11.80;5.30;;;4.20;86.30;;;;;;6053507;23;20023;-70
2022/01/17 00:08:46;;;;;;;10.00;4.93;;;4.20;86.20;;;;;;6053402;23;20034;-72
2022/01/17 00:11:14;;;;;;;12.02;4.93;;;4.20;86.20;;;;;;6053421;23;20517;-71
2022/01/17 00:13:49;;;;;;;12.70;5.07;;;4.20;86.10;;;;;;6053403;23;20018;-72
2022/01/17 00:16:22;;;;;;;10.23;5.10;;;4.20;86.10;;;;;;6052856;23;20033;-72
2022/01/17 00:21:41;;;;;;;8.90;4.95;;;4.20;86.10;;;;;;6016958;23;20408;-71
2022/01/17 00:24:09;;;;;;;10.93;4.90;;;4.20;86.00;;;;;;6052433;23;20102;-71
2022/01/17 00:26:36;;;;;;;11.00;5.85;;;4.20;86.10;;;;;;6050324;23;20085;-70
2022/01/17 00:29:07;;;;;;;8.40;3.92;;;4.20;86.10;;;;;;6052413;23;20031;-72
2022/01/17 00:31:36;;;;;;;11.20;5.57;;;4.20;86.10;;;;;;6052563;23;20023;-72
2022/01/17 00:34:03;;;;;;;12.10;5.10;;;4.20;86.10;;;;;;6050805;23;20126;-72
2022/01/17 00:36:32;;;;;;;10.07;4.85;;;4.20;86.20;;;;;;6054025;23;20022;-70
2022/01/17 00:38:59;;;;;;;10.20;4.43;;;4.20;86.30;;;;;;6054394;23;20027;-71
2022/01/17 00:41:27;;;;;;;10.25;4.78;;;4.20;86.40;;;;;;6052977;23;20082;-72
2022/01/17 00:43:54;;;;;;;8.55;4.18;;;4.20;86.50;;;;;;6053598;23;20046;-71
2022/01/17 00:46:21;;;;;;;9.52;4.95;;;4.20;86.50;;;;;;6053324;23;20027;-71
2022/01/17 00:48:51;;;;;;;8.40;3.88;;;4.10;86.60;;;;;;6054104;23;20349;-70
2022/01/17 00:51:18;;;;;;;9.80;4.43;;;4.20;86.60;;;;;;6052799;23;20027;-71
2022/01/17 00:53:45;;;;;;;8.80;4.90;;;4.20;86.60;;;;;;6053794;23;20041;-70
2022/01/17 00:56:12;;;;;;;8.32;4.35;;;4.20;86.60;;;;;;6053476;23;20350;-70
2022/01/17 00:58:39;;;;;;;12.27;5.45;;;4.20;86.80;;;;;;6053820;23;20059;-72
2022/01/17 01:01:06;;;;;;;9.98;5.03;;;4.10;86.80;;;;;;6051657;23;20025;-70
2022/01/17 01:03:33;;;;;;;9.10;4.35;;;4.20;86.90;;;;;;6053744;23;20030;-71
2022/01/17 01:06:01;;;;;;;10.48;4.55;;;4.20;86.90;;;;;;6054903;23;20027;-71
2022/01/17 01:08:30;;;;;;;9.30;3.38;;;4.10;86.90;;;;;;6054640;23;20121;-71
2022/01/17 01:10:57;;;;;;;9.95;5.05;;;4.10;86.90;;;;;;6055189;23;20019;-71
2022/01/17 01:13:27;;;;;;;10.00;4.95;;;4.10;86.90;;;;;;6053023;23;20077;-71
2022/01/17 01:16:23;;;;;;;9.45;4.65;;;4.10;86.90;;;;;;6055356;23;20029;-71
2022/01/17 01:19:19;;;;;;;8.57;4.03;;;4.20;86.80;;;;;;6054875;23;20022;-71
2022/01/17 01:22:00;;;;;;;8.00;4.35;;;4.20;86.70;;;;;;6055113;23;20090;-71
2022/01/17 01:30:00;;;;;;;7.38;3.83;;;4.20;86.60;;;;;;6054601;23;20067;-71
2022/01/17 01:32:40;;;;;;;6.97;3.65;;;4.10;86.60;;;;;;6052471;23;20090;-71
2022/01/17 01:35:11;;;;;;;7.85;4.07;;;4.20;86.60;;;;;;6056129;23;20023;-72
2022/01/17 01:37:39;;;;;;;10.82;4.45;;;4.20;86.50;;;;;;6055500;23;20031;-71
2022/01/17 01:40:07;;;;;;;10.30;4.50;;;4.20;86.60;;;;;;6055236;23;20458;-71
2022/01/17 01:42:41;;;;;;;10.15;4.40;;;4.20;86.50;;;;;;6054520;23;20098;-71
2022/01/17 01:45:09;;;;;;;7.13;4.25;;;4.20;86.50;;;;;;6053383;23;20018;-70
2022/01/17 01:47:36;;;;;;;12.18;4.30;;;4.20;86.50;;;;;;6054172;23;20033;-71
2022/01/17 01:50:05;;;;;;;8.43;3.92;;;4.20;86.40;;;;;;6054375;23;20154;-71
2022/01/17 01:52:32;;;;;;;7.15;4.03;;;4.20;86.40;;;;;;6054433;23;20027;-70
2022/01/17 01:55:00;;;;;;;7.40;3.80;;;4.20;86.50;;;;;;6054633;23;20599;-70
2022/01/17 01:57:31;;;;;;;8.68;4.22;;;4.20;86.50;;;;;;5959716;23;21371;-72
2022/01/17 02:00:06;;;;;;;5.37;2.47;;;4.20;86.50;;;;;;548012;23;10150399;-69
2022/01/17 02:02:33;;;;;;;8.13;4.40;;;4.10;86.40;;;;;;6052216;23;20772;-72
2022/01/17 02:05:00;;;;;;;9.90;4.20;;;4.20;86.50;;;;;;6052882;23;20022;-71
2022/01/17 02:07:32;;;;;;;6.22;3.20;;;4.10;86.40;;;;;;6052333;23;20019;-71
2022/01/17 02:10:01;;;;;;;7.40;3.88;;;4.20;86.40;;;;;;6052651;23;20027;-71
2022/01/17 02:12:33;;;;;;;6.75;3.63;;;4.20;86.40;;;;;;6052669;23;20089;-71
2022/01/17 02:15:00;;;;;;;10.02;4.20;;;4.20;86.40;;;;;;6052934;23;20037;-71
2022/01/17 02:17:34;;;;;;;11.25;4.25;;;4.20;86.30;;;;;;6052225;23;20022;-71
2022/01/17 02:20:07;;;;;;;8.45;4.20;;;4.20;86.30;;;;;;6053157;23;20037;-71
2022/01/17 02:22:35;;;;;;;10.88;5.55;;;4.20;86.20;;;;;;6048967;23;20097;-71
2022/01/17 02:25:03;;;;;;;7.97;4.32;;;4.20;86.30;;;;;;6051055;23;20408;-70
2022/01/17 02:27:30;;;;;;;9.85;4.40;;;4.20;86.30;;;;;;6052005;23;20350;-71
2022/01/17 02:29:59;;;;;;;8.68;4.15;;;4.20;86.40;;;;;;6053133;23;20021;-71
2022/01/17 02:32:25;;;;;;;10.90;4.60;;;4.20;86.40;;;;;;6052672;23;20019;-71
2022/01/17 02:35:10;;;;;;;13.85;6.05;;;4.20;86.40;;;;;;6052415;23;20022;-70
2022/01/17 02:37:38;;;;;;;10.10;4.53;;;4.20;86.40;;;;;;6051671;23;20022;-72
2022/01/17 02:40:09;;;;;;;11.20;5.25;;;4.20;86.40;;;;;;6053287;23;20481;-71
2022/01/17 02:42:37;;;;;;;10.55;4.95;;;4.20;86.40;;;;;;6052012;23;20031;-71
2022/01/17 02:45:11;;;;;;;10.02;4.50;;;4.20;86.40;;;;;;6053932;23;20365;-70
2022/01/17 02:47:39;;;;;;;10.43;4.97;;;4.20;86.40;;;;;;6053179;23;20462;-69
2022/01/17 02:50:07;;;;;;;11.90;5.20;;;4.20;86.50;;;;;;6053869;23;20462;-70
2022/01/17 02:52:34;;;;;;;11.95;5.05;;;4.20;86.50;;;;;;6053402;23;20292;-70
2022/01/17 02:55:02;;;;;;;9.55;4.72;;;4.20;86.40;;;;;;6054226;23;20456;-70
2022/01/17 02:57:32;;;;;;;9.38;4.50;;;4.20;86.50;;;;;;6053553;23;20055;-71
2022/01/17 02:59:59;;;;;;;9.95;4.57;;;4.20;86.40;;;;;;6054214;23;20137;-71
2022/01/17 03:02:26;;;;;;;11.45;5.35;;;4.10;86.40;;;;;;6051083;23;20033;-71
2022/01/17 03:04:56;;;;;;;12.20;5.47;;;4.20;86.50;;;;;;6053523;23;20025;-70
2022/01/17 03:07:23;;;;;;;9.30;4.95;;;4.20;86.40;;;;;;6052697;23;20106;-72
2022/01/17 03:10:01;;;;;;;9.88;4.30;;;4.20;86.40;;;;;;6054099;23;20022;-71
2022/01/17 03:12:32;;;;;;;12.05;5.15;;;4.20;86.40;;;;;;6053565;23;20023;-70
2022/01/17 03:14:59;;;;;;;10.80;4.78;;;4.20;86.30;;;;;;6054103;23;20125;-69
2022/01/17 03:17:26;;;;;;;11.18;4.72;;;4.20;86.40;;;;;;6054077;23;20522;-70
2022/01/17 03:19:53;;;;;;;10.68;4.13;;;4.20;86.40;;;;;;6055252;23;20101;-71
2022/01/17 03:22:20;;;;;;;9.93;5.30;;;4.20;86.30;;;;;;6054903;23;20037;-73
2022/01/17 03:24:47;;;;;;;9.52;4.70;;;4.20;86.40;;;;;;6054606;23;20405;-70
2022/01/17 03:27:14;;;;;;;11.55;4.50;;;4.20;86.40;;;;;;6054525;23;20062;-70
2022/01/17 03:29:42;;;;;;;10.80;5.32;;;4.20;86.40;;;;;;6054233;23;20319;-71
2022/01/17 03:32:09;;;;;;;11.02;4.97;;;4.20;86.40;;;;;;6054623;23;20303;-72
2022/01/17 03:34:36;;;;;;;9.50;4.47;;;4.20;86.30;;;;;;6055392;23;20023;-72
2022/01/17 03:37:04;;;;;;;9.93;4.93;;;4.20;86.30;;;;;;6056520;23;20390;-71
2022/01/17 03:39:31;;;;;;;12.80;5.60;;;4.20;86.20;;;;;;6054645;23;20454;-72
2022/01/17 03:41:58;;;;;;;10.32;4.88;;;4.20;86.20;;;;;;6053293;23;20034;-71
2022/01/17 03:44:25;;;;;;;10.60;4.20;;;4.20;86.10;;;;;;6052465;23;20023;-70
2022/01/17 03:46:53;;;;;;;11.52;5.47;;;4.20;86.10;;;;;;6053856;23;20018;-71
2022/01/17 03:49:20;;;;;;;11.52;4.60;;;4.20;86.20;;;;;;6052554;23;20049;-71
2022/01/17 03:51:47;;;;;;;10.30;4.70;;;4.20;86.20;;;;;;6053682;23;20343;-73
2022/01/17 03:54:14;;;;;;;13.13;5.70;;;4.20;86.20;;;;;;6053231;23;20061;-72
2022/01/17 03:56:41;;;;;;;11.85;6.50;;;4.20;86.10;;;;;;6016646;23;20030;-70
2022/01/17 03:59:11;;;;;;;10.00;4.63;;;4.20;86.20;;;;;;5577955;23;10000750;-72
2022/01/17 04:01:40;;;;;;;12.05;5.53;;;4.20;86.30;;;;;;1666879;23;10001923;-72
2022/01/17 04:04:08;;;;;;;10.35;4.53;;;4.20;86.30;;;;;;6054301;23;20090;-72
2022/01/17 04:06:35;;;;;;;11.70;5.68;;;4.20;86.20;;;;;;6054503;23;20030;-70
2022/01/17 04:09:02;;;;;;;11.32;4.68;;;4.20;86.20;;;;;;6053489;23;20030;-71
2022/01/17 04:11:36;;;;;;;12.52;5.68;;;4.20;86.20;;;;;;6054170;23;20023;-72
2022/01/17 04:14:03;;;;;;;12.15;5.45;;;4.20;86.20;;;;;;6054525;23;20022;-72
2022/01/17 04:16:30;;;;;;;11.32;5.03;;;4.20;86.30;;;;;;6052297;23;20035;-71
2022/01/17 04:18:57;;;;;;;10.82;5.13;;;4.30;86.20;;;;;;6054498;23;20340;-72
2022/01/17 04:21:30;;;;;;;8.82;4.57;;;4.20;86.20;;;;;;6053975;23;20804;-71
2022/01/17 04:23:57;;;;;;;11.20;5.85;;;4.30;86.10;;;;;;6054377;23;20046;-72
2022/01/17 04:26:24;;;;;;;9.90;4.65;;;4.20;86.20;;;;;;6054678;23;20060;-71
2022/01/17 04:28:54;;;;;;;8.30;4.68;;;4.20;86.30;;;;;;6055845;23;20477;-71
2022/01/17 04:31:21;;;;;;;12.50;4.72;;;4.20;86.40;;;;;;6055173;23;20401;-71
2022/01/17 04:33:49;;;;;;;12.45;5.03;;;4.20;86.50;;;;;;6055482;23;20023;-71
2022/01/17 04:36:16;;;;;;;10.68;4.63;;;4.20;86.50;;;;;;6055361;23;20142;-71
2022/01/17 04:38:44;;;;;;;13.02;5.15;;;4.20;86.50;;;;;;6078448;23;20029;-71
2022/01/17 04:41:15;;;;;;;12.38;5.80;;;4.20;86.50;;;;;;6056111;23;20077;-71
2022/01/17 04:43:58;;;;;;;14.27;5.53;;;4.20;86.50;;;;;;6053694;23;20430;-71
2022/01/17 04:46:25;;;;;;;10.82;5.53;;;4.20;86.50;;;;;;6053555;23;20105;-71
2022/01/17 04:48:52;;;;;;;9.90;4.43;;;4.20;86.40;;;;;;6055923;23;20026;-71
2022/01/17 04:51:19;;;;;;;12.65;5.43;;;4.20;86.40;;;;;;6055636;23;20027;-70
2022/01/17 04:54:07;;;;;;;10.75;4.65;;;4.20;86.40;;;;;;6056230;23;20352;-71
2022/01/17 04:56:34;;;;;;;8.10;4.05;;;4.20;86.30;;;;;;6056138;23;20422;-71
2022/01/17 04:59:01;;;;;;;7.70;4.10;;;4.20;86.30;;;;;;6056799;23;20030;-71
2022/01/17 05:01:28;;;;;;;9.77;4.45;;;4.20;86.30;;;;;;6053507;23;20041;-71
2022/01/17 05:03:55;;;;;;;10.55;4.50;;;4.20;86.20;;;;;;6055112;23;20019;-71
2022/01/17 05:06:22;;;;;;;9.85;4.95;;;4.30;86.20;;;;;;6054167;23;20036;-72
2022/01/17 05:08:50;;;;;;;10.30;5.82;;;4.20;86.20;;;;;;6064038;23;20023;-69
2022/01/17 05:11:17;;;;;;;10.85;4.45;;;4.20;86.20;;;;;;6054098;23;20101;-70
2022/01/17 05:13:48;;;;;;;10.20;5.60;;;4.30;86.20;;;;;;6056072;23;20029;-71
2022/01/17 05:16:16;;;;;;;;;;;4.20;86.20;;;;;;6056714;23;20023;-70
2022/01/17 05:21:39;;;;;;;9.65;3.47;;;4.20;86.30;;;;;;5964670;24;20080;-71
2022/01/17 05:24:07;;;;;;;8.35;4.25;;;4.30;86.20;;;;;;6034026;23;20046;-72
2022/01/17 05:26:34;;;;;;;12.15;4.63;;;4.20;86.20;;;;;;6054501;23;20023;-71
2022/01/17 05:29:01;;;;;;;9.02;4.15;;;4.30;86.20;;;;;;6057505;23;20030;-72
2022/01/17 05:31:28;;;;;;;7.95;3.75;;;4.30;86.20;;;;;;6057795;23;20023;-71
2022/01/17 05:33:55;;;;;;;11.23;4.40;;;4.30;86.30;;;;;;6058868;23;20023;-71
2022/01/17 05:36:24;;;;;;;7.93;3.42;;;4.30;86.20;;;;;;6058453;23;20023;-71
2022/01/17 05:38:52;;;;;;;10.55;4.05;;;4.30;86.30;;;;;;6057067;23;20098;-71
2022/01/17 05:41:20;;;;;;;9.80;4.95;;;4.30;86.20;;;;;;6054531;23;20029;-71
2022/01/17 05:43:48;;;;;;;10.70;3.95;;;4.40;86.20;;;;;;6055335;23;20030;-71
2022/01/17 05:46:15;;;;;;;9.32;3.88;;;4.30;86.20;;;;;;6054615;23;20138;-71
2022/01/17 05:48:42;;;;;;;10.30;3.95;;;4.30;86.20;;;;;;6055568;23;20018;-71
2022/01/17 05:51:09;;;;;;;7.43;4.10;;;4.30;86.20;;;;;;6055936;23;20038;-71
2022/01/17 05:53:36;;;;;;;8.90;4.10;;;4.30;86.20;;;;;;6054881;23;20026;-71
2022/01/17 05:56:04;;;;;;;9.15;3.85;;;4.30;86.20;;;;;;6021283;23;20458;-71
2022/01/17 05:58:43;;;;;;;9.55;3.25;;;4.30;86.20;;;;;;4714588;23;10001484;-72
2022/01/17 06:01:12;;;;;;;7.43;3.60;;;4.40;86.20;;;;;;2921947;23;10001934;-71
2022/01/17 06:03:39;;;;;;;10.05;4.32;;;4.40;86.20;;;;;;6057614;23;20026;-72
2022/01/17 06:06:06;;;;;;;10.10;4.80;;;4.30;86.10;;;;;;6057291;23;20041;-71
2022/01/17 06:08:33;;;;;;;10.45;4.57;;;4.40;86.20;;;;;;6056936;23;20050;-71
2022/01/17 06:11:00;;;;;;;8.13;3.72;;;4.40;86.20;;;;;;6057086;23;20023;-70
2022/01/17 06:13:33;;;;;;;10.60;3.88;;;4.40;86.20;;;;;;6056785;23;20031;-71
2022/01/17 06:16:01;;;;;;;9.90;3.83;;;4.40;86.20;;;;;;6057069;23;20033;-70
2022/01/17 06:18:30;;;;;;;8.50;3.60;;;4.40;86.30;;;;;;6056484;23;20026;-71
2022/01/17 06:20:57;;;;;;;10.43;4.43;;;4.40;86.20;;;;;;6056651;23;20731;-70
2022/01/17 06:23:25;;;;;;;6.72;3.22;;;4.40;86.20;;;;;;6056529;23;20019;-71
2022/01/17 06:25:52;;;;;;;10.02;3.63;;;4.40;86.30;;;;;;6055511;23;20022;-70
2022/01/17 06:28:19;;;;;;;8.52;3.45;;;4.40;86.40;;;;;;6056717;23;20023;-71
2022/01/17 06:30:46;;;;;;;8.48;3.35;;;4.40;86.40;;;;;;6056851;23;20517;-72
2022/01/17 06:33:14;;;;;;;9.02;3.92;;;4.40;86.30;;;;;;6055717;23;20569;-72
2022/01/17 06:35:41;;;;;;;8.90;3.35;;;4.50;86.20;;;;;;6056421;23;20023;-71
2022/01/17 06:38:08;;;;;;;11.30;4.22;;;4.40;86.20;;;;;;6057043;23;20023;-71
2022/01/17 06:40:40;;;;;;;7.47;3.60;;;4.50;86.20;;;;;;6056642;23;20019;-70
2022/01/17 06:43:08;;;;;;;7.03;3.58;;;4.50;86.20;;;;;;6057064;23;20521;-70
2022/01/17 06:45:35;;;;;;;9.48;3.33;;;4.40;86.20;;;;;;6056680;23;20027;-70
2022/01/17 06:48:02;;;;;;;8.18;4.35;;;4.40;86.20;;;;;;6056970;23;20024;-72
2022/01/17 06:50:31;;;;;;;9.75;3.45;;;4.40;86.20;;;;;;6056391;23;20057;-72
2022/01/17 06:52:58;;;;;;;9.18;3.60;;;4.50;86.10;;;;;;6057598;23;20050;-71
2022/01/17 06:55:25;;;;;;;6.80;2.80;;;4.50;86.10;;;;;;6057263;23;20027;-71
2022/01/17 06:57:52;;;;;;;5.30;2.75;;;4.50;86.10;;;;;;6056605;23;20022;-70
2022/01/17 07:00:20;;;;;;;9.05;3.53;;;4.40;86.10;;;;;;6051524;23;20030;-69
2022/01/17 07:02:47;;;;;;;5.78;3.05;;;4.40;86.10;;;;;;6054544;23;20023;-70
2022/01/17 07:05:15;;;;;;;8.27;3.38;;;4.40;86.20;;;;;;6053424;23;20022;-70
2022/01/17 07:07:43;;;;;;;7.90;4.00;;;4.40;86.10;;;;;;6055136;23;20018;-72
2022/01/17 07:10:10;;;;;;;8.63;3.45;;;4.50;86.20;;;;;;6054978;23;20453;-69
2022/01/17 07:12:37;;;;;;;8.80;3.72;;;4.40;86.20;;;;;;6054385;23;20027;-72
2022/01/17 07:15:05;;;;;;;7.45;3.70;;;4.40;86.20;;;;;;6054442;23;20041;-70
2022/01/17 07:17:32;;;;;;;8.18;3.72;;;4.40;86.20;;;;;;6054285;23;20517;-72
2022/01/17 07:19:59;;;;;;;8.68;3.38;;;4.40;86.10;;;;;;6054002;23;20029;-72
2022/01/17 07:22:27;;;;;;;5.93;2.85;;;4.40;86.20;;;;;;6053956;23;20041;-71
2022/01/17 07:24:56;;;;;;;7.10;3.25;;;4.40;86.30;;;;;;6054743;23;20022;-71
2022/01/17 07:27:24;;;;;;;7.95;3.80;;;4.40;86.10;;;;;;6053812;23;20146;-71
2022/01/17 07:29:51;;;;;;;6.30;2.88;;;4.40;86.10;;;;;;6054304;23;20333;-70
2022/01/17 07:32:18;;;;;;;6.80;2.70;;;4.40;86.20;;;;;;6054028;23;20050;-70
2022/01/17 07:34:45;;;;;;;7.72;3.50;;;4.50;86.10;;;;;;6054367;23;20025;-70
2022/01/17 07:37:12;;;;;;;8.18;3.50;;;4.40;86.20;;;;;;6054783;23;20018;-71
2022/01/17 07:39:39;;;;;;;5.68;3.05;;;4.50;86.10;;;;;;6055298;23;20033;-71
2022/01/17 07:42:08;;;;;;;7.80;4.22;;;4.50;86.20;;;;;;6056796;23;20033;-72
2022/01/17 07:44:36;;;;;;;6.13;2.85;;;4.50;86.20;;;;;;6055756;23;20022;-71
2022/01/17 07:47:05;;;;;;;8.23;3.13;;;4.50;86.10;;;;;;6056467;23;20030;-71
2022/01/17 07:49:33;;;;;;;7.53;4.07;;;4.50;86.10;;;;;;6055850;23;20029;-71
2022/01/17 07:52:02;;;;;;;6.15;3.17;;;4.50;86.10;;;;;;6057267;23;20022;-71
2022/01/17 07:54:36;;;;;;;7.93;3.08;;;4.50;86.10;;;;;;6056596;23;20437;-72
2022/01/17 07:57:03;;;;;;;;;;;4.50;86.00;;;;;;5935930;23;21689;-71
2022/01/17 07:59:31;;;;;;;6.40;2.70;;;4.50;86.00;;;;;;1220990;23;10001980;-71
2022/01/17 08:02:00;;;;;;;7.18;2.80;;;4.50;86.10;;;;;;6054514;23;20365;-71
2022/01/17 08:04:30;;;;;;;9.25;4.30;;;4.60;85.90;;;;;;6057077;23;20481;-70
2022/01/17 08:06:56;;;;;;;8.65;3.22;;;4.60;85.80;;;;;;6056933;23;20026;-72
2022/01/17 08:09:29;;;;;;;7.78;3.95;;;4.60;85.90;;;;;;6056926;23;20113;-72
2022/01/17 08:11:56;;;;;;;7.55;3.17;;;4.60;85.80;;;;;;6056844;23;20348;-71
2022/01/17 08:14:24;;;;;;;8.88;3.95;;;4.60;85.80;;;;;;6055214;23;20029;-71
2022/01/17 08:16:53;;;;;;;6.40;2.95;;;4.60;85.80;;;;;;6054543;23;20046;-72
2022/01/17 08:19:23;;;;;;;5.72;3.28;;;4.60;85.70;;;;;;6055823;23;20337;-71
2022/01/17 08:21:52;;;;;;;6.53;3.20;;;4.60;85.80;;;;;;6056138;23;20023;-71
2022/01/17 08:24:19;;;;;;;7.95;3.80;;;4.60;85.70;;;;;;6055036;23;20018;-71
2022/01/17 08:26:46;;;;;;;6.40;2.53;;;4.60;85.70;;;;;;6055227;23;20458;-71
2022/01/17 08:29:14;;;;;;;6.57;3.22;;;4.60;85.70;;;;;;6055817;23;20105;-71
2022/01/17 08:31:42;;;;;;;7.13;3.00;;;4.60;85.70;;;;;;6055657;23;20019;-71
2022/01/17 08:34:12;;;;;;;7.32;2.95;;;4.60;85.70;;;;;;6055902;23;20023;-71
2022/01/17 08:36:39;;;;;;;8.03;3.07;;;4.60;85.60;;;;;;6055411;23;20023;-71
2022/01/17 08:39:07;;;;;;;6.43;2.47;;;4.60;85.70;;;;;;6055993;23;20404;-71
2022/01/17 08:41:34;;;;;;;6.72;3.15;;;4.60;85.70;;;;;;6076174;23;20023;-72
2022/01/17 08:44:01;;;;;;;7.47;3.28;;;4.70;85.70;;;;;;6054597;23;20029;-70
2022/01/17 08:46:28;;;;;;;7.40;2.92;;;4.60;85.70;;;;;;6055145;23;20109;-70
2022/01/17 08:48:55;;;;;;;8.68;3.30;;;4.70;85.80;;;;;;6055150;23;20394;-71
2022/01/17 08:51:24;;;;;;;8.02;3.78;;;4.70;85.70;;;;;;6054905;23;20038;-72
2022/01/17 08:53:51;;;;;;;6.10;2.63;;;4.70;85.60;;;;;;6054636;23;20097;-70
2022/01/17 08:56:18;;;;;;;4.38;2.03;;;4.70;85.60;;;;;;6054836;23;20023;-72
2022/01/17 08:58:45;;;;;;;8.50;2.88;;;4.70;85.60;;;;;;6055015;23;20023;-71
2022/01/17 09:01:13;;;;;;;9.90;5.63;;;4.70;85.60;;;;;;6052813;23;20023;-71
2022/01/17 09:03:40;;;;;;;11.32;5.75;;;4.70;85.50;;;;;;6057942;23;20094;-71
2022/01/17 09:06:08;;;;;;;10.13;4.40;;;4.70;85.60;;;;;;6063637;23;20033;-71
2022/01/17 09:08:36;;;;;;;8.70;3.85;;;4.80;85.50;;;;;;6064508;23;20454;-72
2022/01/17 09:11:03;;;;;;;8.82;3.88;;;4.80;85.60;;;;;;6058031;23;20445;-71
2022/01/17 09:13:30;;;;;;;8.40;3.38;;;4.80;85.50;;;;;;6055340;23;20118;-72
2022/01/17 09:15:57;;;;;;;6.38;2.80;;;4.80;85.40;;;;;;6055702;23;20026;-71
2022/01/17 09:18:24;;;;;;;6.60;2.65;;;4.80;85.30;;;;;;6056575;23;20031;-70
2022/01/17 09:20:52;;;;;;;6.43;2.85;;;4.80;85.40;;;;;;6057279;23;20102;-70
2022/01/17 09:23:19;;;;;;;7.40;2.65;;;4.90;85.40;;;;;;6056695;23;20105;-72
2022/01/17 09:25:47;;;;;;;7.30;3.25;;;4.90;85.40;;;;;;6056824;23;20030;-70
2022/01/17 09:28:14;;;;;;;4.63;2.05;;;4.90;85.50;;;;;;6057463;23;20031;-71
2022/01/17 09:30:41;;;;;;;6.88;3.35;;;4.90;85.40;;;;;;6058693;23;20023;-71
2022/01/17 09:33:08;;;;;;;5.93;2.53;;;4.90;85.30;;;;;;6058399;23;20345;-71
2022/01/17 09:35:36;;;;;;;5.80;2.70;;;4.90;85.20;;;;;;6057568;23;20156;-71
2022/01/17 09:38:04;;;;;;;6.38;2.67;;;4.90;85.20;;;;;;6058095;23;20030;-71
2022/01/17 09:40:38;;;;;;;5.85;3.13;;;5.00;85.10;;;;;;6057628;23;20491;-71
2022/01/17 09:43:06;;;;;;;8.95;3.13;;;5.00;85.10;;;;;;6057655;23;20403;-70
2022/01/17 09:45:33;;;;;;;6.65;2.83;;;5.00;85.10;;;;;;6056994;23;20445;-70
2022/01/17 09:48:02;;;;;;;6.95;3.38;;;5.00;84.90;;;;;;6057503;23;20426;-72
2022/01/17 09:50:46;;;;;;;5.88;2.78;;;4.90;85.00;;;;;;6056605;23;20029;-70
2022/01/17 09:53:18;;;;;;;6.80;3.20;;;5.00;85.00;;;;;;6056894;23;20030;-72
2022/01/17 09:55:45;;;;;;;6.65;2.30;;;5.00;85.00;;;;;;6056611;23;20117;-70
2022/01/17 09:58:28;;;;;;;5.51;1.63;;;5.00;84.90;;;;;;3664607;23;10002707;-71
2022/01/17 10:00:55;;;;;;;6.07;3.30;;;5.00;85.00;;;;;;3964345;23;10002260;-72
2022/01/17 10:03:22;;;;;;;5.05;2.30;;;5.00;85.00;;;;;;6056691;23;20413;-72
2022/01/17 10:05:49;;;;;;;6.72;2.40;;;5.00;85.10;;;;;;6057358;23;20094;-72
2022/01/17 10:08:20;;;;;;;6.13;2.35;;;5.00;85.10;;;;;;6056143;23;20053;-71
2022/01/17 10:10:50;;;;;;;5.93;2.65;;;5.00;85.10;;;;;;6057294;23;20025;-71
2022/01/17 10:13:21;;;;;;;;;;;5.00;85.20;;;;;;6056985;23;20350;-72
2022/01/17 10:16:05;;;;;;;6.20;2.50;;;5.00;85.20;;;;;;6056705;23;19922;-71
2022/01/17 10:18:36;;;;;;;7.93;2.95;;;5.00;85.10;;;;;;6055545;23;20090;-70
2022/01/17 10:21:08;;;;;;;5.95;2.65;;;5.00;85.20;;;;;;6055579;23;20027;-69
2022/01/17 10:23:48;;;;;;;7.25;3.10;;;5.00;85.20;;;;;;6054693;23;20212;-72
2022/01/17 10:26:30;;;;;;;9.02;3.38;;;5.00;85.10;;;;;;6075962;23;20457;-70
2022/01/17 10:29:18;;;;;;;8.55;2.90;;;5.00;85.20;;;;;;6055800;23;20106;-71
2022/01/17 10:34:54;;;;;;;10.00;2.90;;;5.10;84.90;;;;;;6056032;23;20346;-71
2022/01/17 10:37:23;;;;;;;8.45;2.70;;;5.10;85.00;;;;;;6055240;23;20106;-72
2022/01/17 10:39:55;;;;;;;7.75;2.90;;;5.10;84.80;;;;;;6055748;23;20466;-70
2022/01/17 10:42:24;;;;;;;7.22;3.03;;;5.10;84.80;;;;;;6055603;23;20405;-70
2022/01/17 10:44:51;;;;;;;6.68;2.92;;;5.10;84.90;;;;;;6056473;23;20029;-71
2022/01/17 10:47:22;;;;;;;7.18;3.95;;;5.10;85.00;;;;;;6055290;23;20405;-69
2022/01/17 10:49:54;;;;;;;6.03;3.22;;;5.00;85.00;;;;;;6055022;23;20082;-70
2022/01/17 10:52:30;;;;;;;8.88;3.88;;;5.10;85.00;;;;;;6054854;23;20521;-72
2022/01/17 10:54:59;;;;;;;7.95;3.17;;;5.10;85.00;;;;;;6054537;23;20101;-71
2022/01/17 10:57:26;;;;;;;7.93;2.97;;;5.10;85.00;;;;;;6054623;23;20026;-71
2022/01/17 10:59:56;;;;;;;6.50;2.90;;;5.10;84.90;;;;;;6056608;23;20097;-72
2022/01/17 11:02:27;;;;;;;8.90;3.45;;;5.10;84.90;;;;;;6054245;23;20026;-71
2022/01/17 11:04:54;;;;;;;7.40;2.88;;;5.10;85.00;;;;;;6056324;23;20066;-71
2022/01/17 11:07:21;;;;;;;8.18;3.28;;;5.10;84.90;;;;;;6056046;23;20030;-70
2022/01/17 11:09:50;;;;;;;7.25;3.22;;;5.10;85.00;;;;;;6057084;23;20025;-72
2022/01/17 11:12:19;;;;;;;6.70;2.45;;;5.10;85.00;;;;;;6056617;23;20026;-70
2022/01/17 11:14:47;;;;;;;7.20;3.13;;;5.10;85.00;;;;;;6056252;23;20125;-70
2022/01/17 11:17:24;;;;;;;6.95;3.15;;;5.20;84.90;;;;;;6056260;23;20041;-72
2022/01/17 11:20:06;;;;;;;4.72;2.33;;;5.20;84.90;;;;;;6056711;23;20579;-71
2022/01/17 11:22:35;;;;;;;8.15;3.40;;;5.20;85.00;;;;;;6055248;23;20029;-72
2022/01/17 11:25:03;;;;;;;7.28;3.35;;;5.20;84.90;;;;;;6056969;23;20025;-72
2022/01/17 11:27:30;;;;;;;6.70;2.85;;;5.20;84.90;;;;;;6055558;23;20050;-71
2022/01/17 11:29:57;;;;;;;6.30;2.75;;;5.20;84.80;;;;;;6056253;23;20022;-71
2022/01/17 11:32:25;;;;;;;7.40;3.15;;;5.20;84.80;;;;;;6055678;23;20031;-70
2022/01/17 11:34:57;;;;;;;6.10;2.58;;;5.20;84.90;;;;;;6056030;23;20031;-72
2022/01/17 11:37:25;;;;;;;6.43;2.85;;;5.20;84.90;;;;;;6056077;23;20015;-72
2022/01/17 11:39:53;;;;;;;7.18;3.20;;;5.20;84.90;;;;;;6056860;23;20019;-71
2022/01/17 11:42:33;;;;;;;4.03;2.30;;;5.20;84.90;;;;;;6055123;23;20025;-72
2022/01/17 11:45:00;;;;;;;8.70;3.13;;;5.30;84.90;;;;;;6056136;23;20062;-70
2022/01/17 11:47:48;;;;;;;6.35;2.80;;;5.30;84.80;;;;;;6056115;23;20029;-70
2022/01/17 11:50:40;;;;;;;6.25;2.67;;;5.30;84.90;;;;;;6055804;23;20282;-71
2022/01/17 11:53:50;;;;;;;6.82;2.60;;;5.30;84.90;;;;;;6056552;23;20030;-70
2022/01/17 11:56:42;;;;;;;6.07;2.40;;;5.30;84.90;;;;;;6026995;23;20031;-70
2022/01/17 11:59:42;;;;;;;3.89;1.47;;;5.40;84.70;;;;;;1544102;23;10023039;-71
2022/01/17 12:02:27;;;;;;;5.43;2.45;;;5.40;84.50;;;;;;5631501;23;10001002;-71
2022/01/17 12:05:45;;;;;;;5.95;3.15;;;5.40;84.60;;;;;;6050438;23;20553;-71
2022/01/17 12:08:19;;;;;;;5.28;2.75;;;5.30;84.70;;;;;;6050943;23;20034;-72
2022/01/17 12:10:52;;;;;;;7.40;2.78;;;5.40;84.80;;;;;;6049416;23;20460;-71
2022/01/17 12:13:43;;;;;;;6.00;2.58;;;5.40;84.70;;;;;;6049864;23;20476;-70
2022/01/17 12:16:17;;;;;;;5.70;2.38;;;5.30;84.80;;;;;;6052452;23;20438;-73
2022/01/17 12:18:48;;;;;;;6.13;2.42;;;5.30;84.70;;;;;;6047878;23;20167;-72
2022/01/17 12:21:28;;;;;;;8.02;3.50;;;5.40;84.80;;;;;;6050123;23;20137;-70
2022/01/17 12:24:47;;;;;;;8.25;3.28;;;5.40;84.80;;;;;;6052743;23;20042;-72
2022/01/17 12:27:19;;;;;;;6.32;2.65;;;5.40;84.60;;;;;;6048140;23;20042;-71
2022/01/17 12:29:51;;;;;;;8.68;2.90;;;5.40;84.70;;;;;;6053089;23;20105;-70
2022/01/17 12:32:48;;;;;;;6.65;2.38;;;5.40;84.60;;;;;;6054222;23;20344;-70
2022/01/17 12:35:19;;;;;;;5.65;2.50;;;5.40;84.60;;;;;;6055585;23;20026;-71
2022/01/17 12:37:49;;;;;;;6.78;2.88;;;5.40;84.60;;;;;;6056690;23;20023;-72
2022/01/17 12:40:19;;;;;;;7.47;2.47;;;5.40;84.70;;;;;;6055335;23;20022;-71
2022/01/17 12:43:03;;;;;;;6.60;2.47;;;5.40;84.70;;;;;;6058359;23;20023;-71
2022/01/17 12:45:33;;;;;;;8.35;3.08;;;5.40;84.70;;;;;;6057112;23;20023;-70
2022/01/17 12:48:02;;;;;;;6.85;2.55;;;5.40;84.70;;;;;;6058006;23;20019;-70
2022/01/17 12:50:32;;;;;;;10.35;3.30;;;5.40;84.70;;;;;;6057571;23;20023;-70
2022/01/17 12:53:01;;;;;;;8.02;2.40;;;5.40;84.80;;;;;;6057980;23;20323;-70
2022/01/17 12:55:38;;;;;;;7.57;3.33;;;5.40;84.80;;;;;;6057602;23;20023;-72
2022/01/17 12:58:16;;;;;;;6.80;3.15;;;5.40;84.90;;;;;;6057885;23;20539;-72
2022/01/17 13:00:49;;;;;;;5.88;2.47;;;5.40;84.90;;;;;;6054719;23;20106;-72
2022/01/17 13:03:18;;;;;;;5.05;2.53;;;5.40;84.90;;;;;;6078533;23;20026;-72
2022/01/17 13:05:45;;;;;;;5.72;2.55;;;5.50;84.80;;;;;;6057634;23;20021;-71
2022/01/17 13:08:13;;;;;;;6.32;2.60;;;5.40;84.80;;;;;;6054088;23;20593;-71
2022/01/17 13:10:41;;;;;;;5.97;2.75;;;5.40;84.80;;;;;;6058104;23;20026;-71
2022/01/17 13:13:15;;;;;;;4.72;2.13;;;5.40;84.90;;;;;;6057550;23;20108;-72
2022/01/17 13:15:55;;;;;;;9.98;2.72;;;5.50;84.80;;;;;;6057885;23;20079;-73
2022/01/17 13:18:22;;;;;;;6.40;2.45;;;5.50;84.80;;;;;;6056532;23;20461;-71
2022/01/17 13:20:49;;;;;;;7.13;2.58;;;5.60;84.80;;;;;;6057840;23;20093;-71
2022/01/17 13:23:24;;;;;;;4.97;2.35;;;5.60;84.70;;;;;;6056019;23;20025;-72